sensor_id;sensor_type;location;lat;lon;timestamp;pressure;altitude;pressure_sealevel;temperature;humidity
51259;BME280;37327;54.254;18.504;2023-01-25T00:00:53;103095.63;;;-2.07;100.00
51259;BME280;37327;54.254;18.504;2023-01-25T00:04:00;103096.51;;;-2.08;100.00
51259;BME280;37327;54.254;18.504;2023-01-25T00:07:07;103097.44;;;-2.09;100.00
51259;BME280;37327;54.254;18.504;2023-01-25T00:10:14;103097.50;;;-2.12;100.00
51259;BME280;37327;54.254;18.504;2023-01-25T00:13:21;103095.80;;;-2.14;100.00
51259;BME280;37327;54.254;18.504;2023-01-25T00:16:28;103099.38;;;-2.17;100.00
51259;BME280;37327;54.254;18.504;2023-01-25T00:19:35;103098.51;;;-2.17;100.00
51259;BME280;37327;54.254;18.504;2023-01-25T00:22:42;103097.64;;;-2.18;100.00
51259;BME280;37327;54.254;18.504;2023-01-25T00:25:57;103085.40;;;-2.22;100.00
51259;BME280;37327;54.254;18.504;2023-01-25T00:29:04;103068.63;;;-2.23;100.00
51259;BME280;37327;54.254;18.504;2023-01-25T00:35:33;103066.93;;;-2.25;100.00
51259;BME280;37327;54.254;18.504;2023-01-25T00:38:42;103063.41;;;-2.26;100.00
51259;BME280;37327;54.254;18.504;2023-01-25T00:41:49;103064.28;;;-2.25;100.00
51259;BME280;37327;54.254;18.504;2023-01-25T00:44:57;103066.09;;;-2.27;100.00
51259;BME280;37327;54.254;18.504;2023-01-25T00:48:04;103060.00;;;-2.31;100.00
51259;BME280;37327;54.254;18.504;2023-01-25T00:51:11;103055.66;;;-2.33;100.00
51259;BME280;37327;54.254;18.504;2023-01-25T00:54:19;103050.43;;;-2.36;100.00
51259;BME280;37327;54.254;18.504;2023-01-25T00:57:27;103036.30;;;-2.35;100.00
51259;BME280;37327;54.254;18.504;2023-01-25T01:00:34;103037.20;;;-2.36;100.00
51259;BME280;37327;54.254;18.504;2023-01-25T01:03:42;103036.37;;;-2.39;100.00
51259;BME280;37327;54.254;18.504;2023-01-25T01:06:49;103039.93;;;-2.40;100.00
51259;BME280;37327;54.254;18.504;2023-01-25T01:09:56;103032.88;;;-2.41;100.00
51259;BME280;37327;54.254;18.504;2023-01-25T01:13:05;103024.15;;;-2.44;100.00
51259;BME280;37327;54.254;18.504;2023-01-25T01:16:13;103020.64;;;-2.45;100.00
51259;BME280;37327;54.254;18.504;2023-01-25T01:19:20;103006.52;;;-2.44;100.00
51259;BME280;37327;54.254;18.504;2023-01-25T01:22:27;103000.30;;;-2.43;100.00
51259;BME280;37327;54.254;18.504;2023-01-25T01:25:34;103004.77;;;-2.45;100.00
51259;BME280;37327;54.254;18.504;2023-01-25T01:28:41;102997.81;;;-2.49;100.00
51259;BME280;37327;54.254;18.504;2023-01-25T01:31:51;102992.62;;;-2.52;100.00
51259;BME280;37327;54.254;18.504;2023-01-25T01:34:58;102995.31;;;-2.55;100.00
51259;BME280;37327;54.254;18.504;2023-01-25T01:38:05;102996.20;;;-2.56;100.00
51259;BME280;37327;54.254;18.504;2023-01-25T01:41:13;102998.02;;;-2.58;100.00
51259;BME280;37327;54.254;18.504;2023-01-25T01:44:39;102996.33;;;-2.61;100.00
51259;BME280;37327;54.254;18.504;2023-01-25T01:47:39;103000.78;;;-2.63;100.00
51259;BME280;37327;54.254;18.504;2023-01-25T01:50:58;102998.17;;;-2.64;100.00
51259;BME280;37327;54.254;18.504;2023-01-25T01:54:15;102997.34;;;-2.66;100.00
51259;BME280;37327;54.254;18.504;2023-01-25T01:57:39;102990.23;;;-2.64;100.00
51259;BME280;37327;54.254;18.504;2023-01-25T02:00:41;102992.08;;;-2.68;100.00
51259;BME280;37327;54.254;18.504;2023-01-25T02:03:49;102984.20;;;-2.69;100.00
51259;BME280;37327;54.254;18.504;2023-01-25T02:10:17;102971.05;;;-2.72;100.00
51259;BME280;37327;54.254;18.504;2023-01-25T02:13:26;102970.14;;;-2.71;100.00
51259;BME280;37327;54.254;18.504;2023-01-25T02:16:34;102975.44;;;-2.71;100.00
51259;BME280;37327;54.254;18.504;2023-01-25T02:19:52;102965.75;;;-2.72;100.00
51259;BME280;37327;54.254;18.504;2023-01-25T02:26:17;102961.50;;;-2.80;100.00
51259;BME280;37327;54.254;18.504;2023-01-25T02:29:28;102973.91;;;-2.83;100.00
51259;BME280;37327;54.254;18.504;2023-01-25T02:32:36;102967.84;;;-2.87;100.00
51259;BME280;37327;54.254;18.504;2023-01-25T02:35:46;102957.16;;;-2.82;100.00
51259;BME280;37327;54.254;18.504;2023-01-25T02:38:58;102957.19;;;-2.84;100.00
51259;BME280;37327;54.254;18.504;2023-01-25T02:42:06;102957.27;;;-2.87;100.00
51259;BME280;37327;54.254;18.504;2023-01-25T02:45:15;102946.73;;;-2.88;100.00
51259;BME280;37327;54.254;18.504;2023-01-25T02:48:24;102942.40;;;-2.91;100.00
51259;BME280;37327;54.254;18.504;2023-01-25T02:51:33;102943.29;;;-2.92;100.00
51259;BME280;37327;54.254;18.504;2023-01-25T02:54:40;102943.31;;;-2.93;100.00
51259;BME280;37327;54.254;18.504;2023-01-25T02:57:47;102930.12;;;-2.95;100.00
51259;BME280;37327;54.254;18.504;2023-01-25T03:00:55;102935.41;;;-2.95;100.00
51259;BME280;37327;54.254;18.504;2023-01-25T03:04:03;102936.33;;;-2.96;100.00
51259;BME280;37327;54.254;18.504;2023-01-25T03:07:10;102935.41;;;-2.95;100.00
51259;BME280;37327;54.254;18.504;2023-01-25T03:10:17;102931.88;;;-2.94;100.00
51259;BME280;37327;54.254;18.504;2023-01-25T03:13:24;102921.30;;;-2.94;100.00
51259;BME280;37327;54.254;18.504;2023-01-25T03:16:31;102908.91;;;-2.92;100.00
51259;BME280;37327;54.254;18.504;2023-01-25T03:19:38;102919.52;;;-2.93;100.00
51259;BME280;37327;54.254;18.504;2023-01-25T03:22:45;102924.77;;;-2.92;100.00
51259;BME280;37327;54.254;18.504;2023-01-25T03:25:52;102915.13;;;-2.93;100.00
51259;BME280;37327;54.254;18.504;2023-01-25T03:28:59;102914.26;;;-2.95;100.00
51259;BME280;37327;54.254;18.504;2023-01-25T03:32:06;102909.95;;;-2.99;100.00
51259;BME280;37327;54.254;18.504;2023-01-25T03:35:13;102916.25;;;-3.05;100.00
51259;BME280;37327;54.254;18.504;2023-01-25T03:38:20;102900.45;;;-3.06;100.00
51259;BME280;37327;54.254;18.504;2023-01-25T03:41:27;102900.50;;;-3.09;100.00
51259;BME280;37327;54.254;18.504;2023-01-25T03:44:34;102904.13;;;-3.13;100.00
51259;BME280;37327;54.254;18.504;2023-01-25T03:47:41;102894.38;;;-3.11;100.00
51259;BME280;37327;54.254;18.504;2023-01-25T03:50:49;102882.92;;;-3.10;100.00
51259;BME280;37327;54.254;18.504;2023-01-25T03:53:57;102887.29;;;-3.09;100.00
51259;BME280;37327;54.254;18.504;2023-01-25T03:57:04;102882.16;;;-3.15;100.00
51259;BME280;37327;54.254;18.504;2023-01-25T04:00:12;102877.73;;;-3.15;100.00
51259;BME280;37327;54.254;18.504;2023-01-25T04:03:18;102860.96;;;-3.12;100.00
51259;BME280;37327;54.254;18.504;2023-01-25T04:06:27;102861.79;;;-3.10;100.00
51259;BME280;37327;54.254;18.504;2023-01-25T04:09:33;102857.33;;;-3.08;100.00
51259;BME280;37327;54.254;18.504;2023-01-25T04:12:41;102845.77;;;-3.04;100.00
51259;BME280;37327;54.254;18.504;2023-01-25T04:15:48;102856.34;;;-3.04;100.00
51259;BME280;37327;54.254;18.504;2023-01-25T04:18:55;102852.78;;;-3.03;100.00
51259;BME280;37327;54.254;18.504;2023-01-25T04:22:01;102847.59;;;-3.06;100.00
51259;BME280;37327;54.254;18.504;2023-01-25T04:25:09;102844.16;;;-3.10;100.00
51259;BME280;37327;54.254;18.504;2023-01-25T04:28:15;102847.77;;;-3.14;100.00
51259;BME280;37327;54.254;18.504;2023-01-25T04:31:22;102851.33;;;-3.17;100.00
51259;BME280;37327;54.254;18.504;2023-01-25T04:34:29;102845.16;;;-3.15;100.00
51259;BME280;37327;54.254;18.504;2023-01-25T04:37:35;102837.17;;;-3.12;100.00
51259;BME280;37327;54.254;18.504;2023-01-25T04:40:43;102832.66;;;-3.09;100.00
51259;BME280;37327;54.254;18.504;2023-01-25T04:43:50;102835.30;;;-3.09;100.00
51259;BME280;37327;54.254;18.504;2023-01-25T04:46:57;102834.44;;;-3.09;100.00
51259;BME280;37327;54.254;18.504;2023-01-25T04:50:05;102838.84;;;-3.08;100.00
51259;BME280;37327;54.254;18.504;2023-01-25T04:53:12;102829.09;;;-3.06;100.00
51259;BME280;37327;54.254;18.504;2023-01-25T04:56:19;102823.74;;;-3.05;100.00
51259;BME280;37327;54.254;18.504;2023-01-25T04:59:27;102821.07;;;-3.03;100.00
51259;BME280;37327;54.254;18.504;2023-01-25T05:02:34;102815.80;;;-3.05;100.00
51259;BME280;37327;54.254;18.504;2023-01-25T05:05:47;102819.41;;;-3.07;100.00
51259;BME280;37327;54.254;18.504;2023-01-25T05:08:54;102817.63;;;-3.07;100.00
51259;BME280;37327;54.254;18.504;2023-01-25T05:12:00;102813.27;;;-3.08;100.00
51259;BME280;37327;54.254;18.504;2023-01-25T05:15:08;102815.88;;;-3.06;100.00
51259;BME280;37327;54.254;18.504;2023-01-25T05:18:15;102814.89;;;-3.02;100.00
51259;BME280;37327;54.254;18.504;2023-01-25T05:21:22;102814.80;;;-2.99;100.00
51259;BME280;37327;54.254;18.504;2023-01-25T05:24:42;102807.80;;;-3.00;100.00
51259;BME280;37327;54.254;18.504;2023-01-25T05:27:50;102806.97;;;-3.02;100.00
51259;BME280;37327;54.254;18.504;2023-01-25T05:30:57;102799.93;;;-3.03;100.00
51259;BME280;37327;54.254;18.504;2023-01-25T05:34:03;102807.81;;;-3.02;100.00
51259;BME280;37327;54.254;18.504;2023-01-25T05:40:24;102800.70;;;-2.98;100.00
51259;BME280;37327;54.254;18.504;2023-01-25T05:43:31;102795.44;;;-3.00;100.00
51259;BME280;37327;54.254;18.504;2023-01-25T05:46:38;102802.48;;;-2.99;100.00
51259;BME280;37327;54.254;18.504;2023-01-25T05:49:45;102792.82;;;-3.01;100.00
51259;BME280;37327;54.254;18.504;2023-01-25T05:52:52;102790.25;;;-3.03;100.00
51259;BME280;37327;54.254;18.504;2023-01-25T05:56:07;102775.30;;;-3.05;100.00
51259;BME280;37327;54.254;18.504;2023-01-25T05:59:16;102787.73;;;-3.09;100.00
51259;BME280;37327;54.254;18.504;2023-01-25T06:02:23;102784.23;;;-3.09;100.00
51259;BME280;37327;54.254;18.504;2023-01-25T06:05:29;102789.60;;;-3.12;100.00
51259;BME280;37327;54.254;18.504;2023-01-25T06:08:36;102779.95;;;-3.15;100.00
51259;BME280;37327;54.254;18.504;2023-01-25T06:11:44;102782.57;;;-3.13;100.00
51259;BME280;37327;54.254;18.504;2023-01-25T06:14:51;102782.57;;;-3.13;100.00
51259;BME280;37327;54.254;18.504;2023-01-25T06:17:59;102790.61;;;-3.18;100.00
51259;BME280;37327;54.254;18.504;2023-01-25T06:21:06;102785.28;;;-3.17;100.00
51259;BME280;37327;54.254;18.504;2023-01-25T06:24:13;102782.63;;;-3.17;100.00
51259;BME280;37327;54.254;18.504;2023-01-25T06:27:20;102782.60;;;-3.15;100.00
51259;BME280;37327;54.254;18.504;2023-01-25T06:30:26;102784.31;;;-3.12;100.00
51259;BME280;37327;54.254;18.504;2023-01-25T06:33:34;102768.47;;;-3.12;100.00
51259;BME280;37327;54.254;18.504;2023-01-25T06:36:41;102772.83;;;-3.11;100.00
51259;BME280;37327;54.254;18.504;2023-01-25T06:39:48;102789.63;;;-3.14;100.00
51259;BME280;37327;54.254;18.504;2023-01-25T06:46:13;102764.89;;;-3.11;100.00
51259;BME280;37327;54.254;18.504;2023-01-25T06:49:21;102766.55;;;-3.07;100.00
51259;BME280;37327;54.254;18.504;2023-01-25T06:52:27;102759.46;;;-3.05;100.00
51259;BME280;37327;54.254;18.504;2023-01-25T06:55:36;102755.92;;;-3.04;100.00
51259;BME280;37327;54.254;18.504;2023-01-25T06:58:44;102753.25;;;-3.03;100.00
51259;BME280;37327;54.254;18.504;2023-01-25T07:01:52;102756.71;;;-3.01;100.00
51259;BME280;37327;54.254;18.504;2023-01-25T07:04:58;102762.00;;;-3.01;100.00
51259;BME280;37327;54.254;18.504;2023-01-25T07:08:05;102761.09;;;-3.00;100.00
51259;BME280;37327;54.254;18.504;2023-01-25T07:11:13;102754.08;;;-3.01;100.00
51259;BME280;37327;54.254;18.504;2023-01-25T07:14:20;102758.41;;;-2.98;100.00
51259;BME280;37327;54.254;18.504;2023-01-25T07:17:27;102753.02;;;-2.95;100.00
51259;BME280;37327;54.254;18.504;2023-01-25T07:20:34;102752.13;;;-2.94;100.00
51259;BME280;37327;54.254;18.504;2023-01-25T07:23:41;102743.38;;;-2.96;100.00
51259;BME280;37327;54.254;18.504;2023-01-25T07:26:48;102749.48;;;-2.94;100.00
51259;BME280;37327;54.254;18.504;2023-01-25T07:29:55;102753.09;;;-2.96;100.00
51259;BME280;37327;54.254;18.504;2023-01-25T07:33:02;102754.00;;;-2.99;100.00
51259;BME280;37327;54.254;18.504;2023-01-25T07:36:10;102757.55;;;-2.99;100.00
51259;BME280;37327;54.254;18.504;2023-01-25T07:39:17;102749.52;;;-2.95;100.00
51259;BME280;37327;54.254;18.504;2023-01-25T07:42:24;102748.59;;;-2.93;100.00
51259;BME280;37327;54.254;18.504;2023-01-25T07:45:31;102749.31;;;-2.88;100.00
51259;BME280;37327;54.254;18.504;2023-01-25T07:48:39;102755.36;;;-2.83;100.00
51259;BME280;37327;54.254;18.504;2023-01-25T07:51:47;102751.80;;;-2.82;100.00
51259;BME280;37327;54.254;18.504;2023-01-25T07:54:54;102745.48;;;-2.76;100.00
51259;BME280;37327;54.254;18.504;2023-01-25T07:58:01;102736.55;;;-2.72;100.00
51259;BME280;37327;54.254;18.504;2023-01-25T08:01:15;102736.38;;;-2.66;100.00
51259;BME280;37327;54.254;18.504;2023-01-25T08:04:22;102725.80;;;-2.66;100.00
51259;BME280;37327;54.254;18.504;2023-01-25T08:07:29;102727.49;;;-2.62;100.00
51259;BME280;37327;54.254;18.504;2023-01-25T08:10:37;102723.88;;;-2.59;100.00
51259;BME280;37327;54.254;18.504;2023-01-25T08:13:45;102718.63;;;-2.61;100.00
51259;BME280;37327;54.254;18.504;2023-01-25T08:16:54;102715.91;;;-2.57;100.00
51259;BME280;37327;54.254;18.504;2023-01-25T08:20:01;102714.09;;;-2.55;100.00
51259;BME280;37327;54.254;18.504;2023-01-25T08:23:09;102713.16;;;-2.54;100.00
51259;BME280;37327;54.254;18.504;2023-01-25T08:26:16;102709.70;;;-2.56;100.00
51259;BME280;37327;54.254;18.504;2023-01-25T08:29:24;102715.84;;;-2.56;100.00
51259;BME280;37327;54.254;18.504;2023-01-25T08:32:34;102711.38;;;-2.54;100.00
51259;BME280;37327;54.254;18.504;2023-01-25T08:35:42;102723.57;;;-2.48;100.00
51259;BME280;37327;54.254;18.504;2023-01-25T08:38:56;102713.77;;;-2.45;100.00
51259;BME280;37327;54.254;18.504;2023-01-25T08:42:03;102716.20;;;-2.37;100.00
51259;BME280;37327;54.254;18.504;2023-01-25T08:45:11;102717.73;;;-2.28;100.00
51259;BME280;37327;54.254;18.504;2023-01-25T08:48:18;102711.31;;;-2.21;100.00
51259;BME280;37327;54.254;18.504;2023-01-25T08:51:25;102706.81;;;-2.17;100.00
51259;BME280;37327;54.254;18.504;2023-01-25T08:54:32;102703.16;;;-2.13;100.00
51259;BME280;37327;54.254;18.504;2023-01-25T08:57:39;102691.66;;;-2.12;100.00
51259;BME280;37327;54.254;18.504;2023-01-25T09:00:47;102693.16;;;-2.04;100.00
51259;BME280;37327;54.254;18.504;2023-01-25T09:03:55;102693.93;;;-2.00;100.00
51259;BME280;37327;54.254;18.504;2023-01-25T09:07:01;102686.77;;;-1.96;100.00
51259;BME280;37327;54.254;18.504;2023-01-25T09:10:09;102688.33;;;-1.89;100.00
51259;BME280;37327;54.254;18.504;2023-01-25T09:13:16;102685.44;;;-1.82;100.00
51259;BME280;37327;54.254;18.504;2023-01-25T09:16:24;102687.89;;;-1.75;100.00
51259;BME280;37327;54.254;18.504;2023-01-25T09:19:35;102675.38;;;-1.72;100.00
51259;BME280;37327;54.254;18.504;2023-01-25T09:22:42;102670.83;;;-1.67;100.00
51259;BME280;37327;54.254;18.504;2023-01-25T09:25:58;102666.38;;;-1.66;100.00
51259;BME280;37327;54.254;18.504;2023-01-25T09:29:06;102663.60;;;-1.62;100.00
51259;BME280;37327;54.254;18.504;2023-01-25T09:32:13;102664.24;;;-1.55;100.00
51259;BME280;37327;54.254;18.504;2023-01-25T09:35:19;102657.88;;;-1.49;100.00
51259;BME280;37327;54.254;18.504;2023-01-25T09:38:27;102666.60;;;-1.46;100.00
51259;BME280;37327;54.254;18.504;2023-01-25T09:45:46;102651.35;;;-1.39;100.00
51259;BME280;37327;54.254;18.504;2023-01-25T09:54:49;102640.41;;;-1.28;100.00
51259;BME280;37327;54.254;18.504;2023-01-25T09:58:00;102627.20;;;-1.30;100.00
51259;BME280;37327;54.254;18.504;2023-01-25T10:14:24;102599.40;;;-1.18;100.00
51259;BME280;37327;54.254;18.504;2023-01-25T10:17:39;102589.33;;;-1.08;100.00
51259;BME280;37327;54.254;18.504;2023-01-25T10:20:54;102587.48;;;-1.06;100.00
51259;BME280;37327;54.254;18.504;2023-01-25T10:24:18;102566.81;;;-0.96;100.00
51259;BME280;37327;54.254;18.504;2023-01-25T10:37:29;102550.07;;;-0.75;100.00
51259;BME280;37327;54.254;18.504;2023-01-25T10:40:45;102548.29;;;-0.74;100.00
51259;BME280;37327;54.254;18.504;2023-01-25T10:43:55;102546.63;;;-0.77;99.55
51259;BME280;37327;54.254;18.504;2023-01-25T10:47:23;102540.56;;;-0.81;99.44
51259;BME280;37327;54.254;18.504;2023-01-25T10:50:41;102530.34;;;-0.90;99.24
51259;BME280;37327;54.254;18.504;2023-01-25T10:54:00;102520.83;;;-0.95;99.20
51259;BME280;37327;54.254;18.504;2023-01-25T10:57:16;102518.09;;;-0.94;99.54
51259;BME280;37327;54.254;18.504;2023-01-25T11:00:35;102515.15;;;-0.86;99.50
51259;BME280;37327;54.254;18.504;2023-01-25T11:03:43;102489.38;;;-0.83;99.48
51259;BME280;37327;54.254;18.504;2023-01-25T11:06:53;102486.87;;;-0.86;99.14
51259;BME280;37327;54.254;18.504;2023-01-25T11:09:59;102489.72;;;-0.92;98.88
51259;BME280;37327;54.254;18.504;2023-01-25T11:16:37;102482.95;;;-0.99;99.03
51259;BME280;37327;54.254;18.504;2023-01-25T11:19:40;102479.45;;;-1.00;98.93
51259;BME280;37327;54.254;18.504;2023-01-25T11:22:54;102479.30;;;-0.96;98.93
51259;BME280;37327;54.254;18.504;2023-01-25T11:29:22;102461.20;;;-0.85;98.79
51259;BME280;37327;54.254;18.504;2023-01-25T11:32:29;102453.80;;;-0.77;98.99
51259;BME280;37327;54.254;18.504;2023-01-25T11:35:45;102451.78;;;-0.70;98.54
51259;BME280;37327;54.254;18.504;2023-01-25T11:39:02;102442.77;;;-0.66;98.18
51259;BME280;37327;54.254;18.504;2023-01-25T11:59:04;102396.95;;;-0.49;97.35
51259;BME280;37327;54.254;18.504;2023-01-25T12:12:11;102363.46;;;-0.31;96.18
51259;BME280;37327;54.254;18.504;2023-01-25T12:15:32;102351.14;;;-0.32;95.97
51259;BME280;37327;54.254;18.504;2023-01-25T12:18:50;102350.20;;;-0.31;95.91
51259;BME280;37327;54.254;18.504;2023-01-25T12:28:40;102333.23;;;-0.27;95.75
51259;BME280;37327;54.254;18.504;2023-01-25T12:31:59;102330.76;;;-0.32;95.60
51259;BME280;37327;54.254;18.504;2023-01-25T12:38:40;102318.71;;;-0.39;95.76
51259;BME280;37327;54.254;18.504;2023-01-25T12:41:59;102306.34;;;-0.40;95.84
51259;BME280;37327;54.254;18.504;2023-01-25T12:48:36;102300.58;;;-0.50;95.89
51259;BME280;37327;54.254;18.504;2023-01-25T12:51:47;102304.30;;;-0.54;95.82
51259;BME280;37327;54.254;18.504;2023-01-25T12:55:01;102301.85;;;-0.58;95.89
51259;BME280;37327;54.254;18.504;2023-01-25T13:01:37;102294.91;;;-0.63;96.31
51259;BME280;37327;54.254;18.504;2023-01-25T13:08:37;102278.15;;;-0.63;96.49
51259;BME280;37327;54.254;18.504;2023-01-25T13:11:36;102285.38;;;-0.67;96.50
51259;BME280;37327;54.254;18.504;2023-01-25T13:14:44;102283.72;;;-0.69;96.56
51259;BME280;37327;54.254;18.504;2023-01-25T13:17:51;102280.34;;;-0.73;96.67
51259;BME280;37327;54.254;18.504;2023-01-25T13:21:00;102285.00;;;-0.78;96.69
51259;BME280;37327;54.254;18.504;2023-01-25T13:24:24;102274.56;;;-0.83;96.81
51259;BME280;37327;54.254;18.504;2023-01-25T13:27:29;102272.05;;;-0.86;96.95
51259;BME280;37327;54.254;18.504;2023-01-25T13:30:50;102269.52;;;-0.89;97.02
51259;BME280;37327;54.254;18.504;2023-01-25T13:33:52;102269.57;;;-0.90;96.99
51259;BME280;37327;54.254;18.504;2023-01-25T13:36:59;102252.92;;;-0.94;96.94
51259;BME280;37327;54.254;18.504;2023-01-25T13:43:26;102260.09;;;-0.96;97.15
51259;BME280;37327;54.254;18.504;2023-01-25T13:46:33;102259.23;;;-0.96;97.28
51259;BME280;37327;54.254;18.504;2023-01-25T13:49:43;102254.78;;;-0.96;97.29
51259;BME280;37327;54.254;18.504;2023-01-25T13:59:29;102240.14;;;-1.05;96.93
51259;BME280;37327;54.254;18.504;2023-01-25T14:02:38;102234.95;;;-1.08;96.99
51259;BME280;37327;54.254;18.504;2023-01-25T14:05:51;102235.20;;;-1.14;96.88
51259;BME280;37327;54.254;18.504;2023-01-25T14:09:04;102236.32;;;-1.20;97.00
51259;BME280;37327;54.254;18.504;2023-01-25T14:15:33;102225.07;;;-1.25;97.55
51259;BME280;37327;54.254;18.504;2023-01-25T14:18:40;102217.18;;;-1.26;97.49
51259;BME280;37327;54.254;18.504;2023-01-25T14:25:17;102210.60;;;-1.38;97.78
51259;BME280;37327;54.254;18.504;2023-01-25T14:28:26;102215.16;;;-1.42;97.80
51259;BME280;37327;54.254;18.504;2023-01-25T14:31:36;102209.11;;;-1.45;98.10
51259;BME280;37327;54.254;18.504;2023-01-25T14:34:43;102204.92;;;-1.51;98.08
51259;BME280;37327;54.254;18.504;2023-01-25T14:37:50;102200.69;;;-1.55;98.27
51259;BME280;37327;54.254;18.504;2023-01-25T14:44:15;102197.68;;;-1.68;98.43
51259;BME280;37327;54.254;18.504;2023-01-25T14:47:30;102196.05;;;-1.72;98.70
51259;BME280;37327;54.254;18.504;2023-01-25T14:50:39;102193.55;;;-1.75;98.90
51259;BME280;37327;54.254;18.504;2023-01-25T14:53:54;102186.65;;;-1.79;99.04
51259;BME280;37327;54.254;18.504;2023-01-25T14:57:04;102174.51;;;-1.85;99.03
51259;BME280;37327;54.254;18.504;2023-01-25T15:00:19;102173.81;;;-1.90;99.19
51259;BME280;37327;54.254;18.504;2023-01-25T15:03:28;102171.36;;;-1.94;99.26
51259;BME280;37327;54.254;18.504;2023-01-25T15:06:43;102169.81;;;-2.00;99.43
51259;BME280;37327;54.254;18.504;2023-01-25T15:16:34;102175.89;;;-2.20;99.46
51259;BME280;37327;54.254;18.504;2023-01-25T15:19:50;102178.81;;;-2.28;99.37
51259;BME280;37327;54.254;18.504;2023-01-25T15:23:09;102177.61;;;-2.43;98.86
51259;BME280;37327;54.254;18.504;2023-01-25T15:26:19;102179.05;;;-2.57;98.79
51259;BME280;37327;54.254;18.504;2023-01-25T15:29:26;102178.52;;;-2.67;99.38
51259;BME280;37327;54.254;18.504;2023-01-25T15:32:33;102181.27;;;-2.70;99.67
51259;BME280;37327;54.254;18.504;2023-01-25T15:35:40;102181.48;;;-2.76;99.79
51259;BME280;37327;54.254;18.504;2023-01-25T15:38:48;102181.71;;;-2.83;99.94
51259;BME280;37327;54.254;18.504;2023-01-25T15:41:55;102166.17;;;-2.92;100.00
51259;BME280;37327;54.254;18.504;2023-01-25T15:45:03;102163.74;;;-2.98;100.00
51259;BME280;37327;54.254;18.504;2023-01-25T15:48:17;102168.44;;;-3.06;100.00
51259;BME280;37327;54.254;18.504;2023-01-25T15:51:25;102166.82;;;-3.10;100.00
51259;BME280;37327;54.254;18.504;2023-01-25T15:54:33;102167.13;;;-3.20;100.00
51259;BME280;37327;54.254;18.504;2023-01-25T15:57:42;102163.94;;;-3.29;99.66
51259;BME280;37327;54.254;18.504;2023-01-25T16:00:51;102165.98;;;-3.38;99.70
51259;BME280;37327;54.254;18.504;2023-01-25T16:03:59;102164.62;;;-3.49;99.22
51259;BME280;37327;54.254;18.504;2023-01-25T16:07:14;102161.34;;;-3.58;99.65
51259;BME280;37327;54.254;18.504;2023-01-25T16:10:24;102165.11;;;-3.65;99.74
51259;BME280;37327;54.254;18.504;2023-01-25T16:13:31;102165.45;;;-3.75;99.87
51259;BME280;37327;54.254;18.504;2023-01-25T16:16:44;102164.75;;;-3.81;100.00
51259;BME280;37327;54.254;18.504;2023-01-25T16:19:51;102149.90;;;-3.85;100.00
51259;BME280;37327;54.254;18.504;2023-01-25T16:22:58;102147.33;;;-3.86;100.00
51259;BME280;37327;54.254;18.504;2023-01-25T16:26:21;102142.05;;;-3.86;100.00
51259;BME280;37327;54.254;18.504;2023-01-25T16:29:26;102135.84;;;-3.85;100.00
51259;BME280;37327;54.254;18.504;2023-01-25T16:32:33;102137.42;;;-3.80;100.00
51259;BME280;37327;54.254;18.504;2023-01-25T16:35:40;102127.64;;;-3.76;100.00
51259;BME280;37327;54.254;18.504;2023-01-25T16:38:47;102127.55;;;-3.73;100.00
51259;BME280;37327;54.254;18.504;2023-01-25T16:41:55;102131.09;;;-3.74;100.00
51259;BME280;37327;54.254;18.504;2023-01-25T16:45:04;102127.55;;;-3.73;100.00
51259;BME280;37327;54.254;18.504;2023-01-25T16:48:12;102128.36;;;-3.71;100.00
51259;BME280;37327;54.254;18.504;2023-01-25T16:51:25;102111.59;;;-3.70;100.00
51259;BME280;37327;54.254;18.504;2023-01-25T16:54:32;102113.34;;;-3.69;100.00
51259;BME280;37327;54.254;18.504;2023-01-25T16:57:40;102113.42;;;-3.72;100.00
51259;BME280;37327;54.254;18.504;2023-01-25T17:00:48;102112.70;;;-3.77;100.00
51259;BME280;37327;54.254;18.504;2023-01-25T17:03:56;102111.84;;;-3.78;100.00
51259;BME280;37327;54.254;18.504;2023-01-25T17:07:03;102101.24;;;-3.76;100.00
51259;BME280;37327;54.254;18.504;2023-01-25T17:10:10;102097.59;;;-3.72;100.00
51259;BME280;37327;54.254;18.504;2023-01-25T17:13:17;102079.06;;;-3.70;100.00
51259;BME280;37327;54.254;18.504;2023-01-25T17:18:27;102090.47;;;-3.70;100.00
51259;BME280;37327;54.254;18.504;2023-01-25T17:21:35;102093.02;;;-3.67;100.00
51259;BME280;37327;54.254;18.504;2023-01-25T17:24:41;102087.58;;;-3.62;100.00
51259;BME280;37327;54.254;18.504;2023-01-25T17:27:50;102085.59;;;-3.55;100.00
51259;BME280;37327;54.254;18.504;2023-01-25T17:30:56;102094.18;;;-3.49;100.00
51259;BME280;37327;54.254;18.504;2023-01-25T17:34:06;102086.09;;;-3.44;100.00
51259;BME280;37327;54.254;18.504;2023-01-25T17:37:14;102078.12;;;-3.43;100.00
51259;BME280;37327;54.254;18.504;2023-01-25T17:40:21;102077.95;;;-3.38;100.00
51259;BME280;37327;54.254;18.504;2023-01-25T17:43:28;102078.75;;;-3.36;100.00
51259;BME280;37327;54.254;18.504;2023-01-25T17:46:36;102076.83;;;-3.31;100.00
51259;BME280;37327;54.254;18.504;2023-01-25T17:49:43;102075.04;;;-3.30;100.00
51259;BME280;37327;54.254;18.504;2023-01-25T17:52:50;102061.69;;;-3.26;100.00
51259;BME280;37327;54.254;18.504;2023-01-25T17:56:01;102060.65;;;-3.22;100.00
51259;BME280;37327;54.254;18.504;2023-01-25T17:59:09;102072.09;;;-3.21;100.00
51259;BME280;37327;54.254;18.504;2023-01-25T18:02:17;102064.10;;;-3.20;100.00
51259;BME280;37327;54.254;18.504;2023-01-25T18:05:26;102055.32;;;-3.20;100.00
51259;BME280;37327;54.254;18.504;2023-01-25T18:08:41;102056.04;;;-3.17;100.00
51259;BME280;37327;54.254;18.504;2023-01-25T18:11:48;102047.18;;;-3.14;100.00
51259;BME280;37327;54.254;18.504;2023-01-25T18:14:55;102042.65;;;-3.10;100.00
51259;BME280;37327;54.254;18.504;2023-01-25T18:18:02;102041.66;;;-3.08;100.00